createdAt,value
2016-12-10T00:00:43.331Z,979.47
2016-12-10T00:01:43.324Z,979.44
2016-12-10T00:02:43.323Z,979.45
2016-12-10T00:03:43.319Z,979.45
2016-12-10T00:04:43.316Z,979.36
2016-12-10T00:05:43.308Z,979.35
2016-12-10T00:06:43.304Z,979.31
2016-12-10T00:07:43.296Z,979.33
2016-12-10T00:08:43.296Z,979.32
2016-12-10T00:09:43.292Z,979.32
2016-12-10T00:10:43.289Z,979.33
2016-12-10T00:11:43.281Z,979.37
2016-12-10T00:12:43.281Z,979.34
2016-12-10T00:13:43.273Z,979.3
2016-12-10T00:14:43.266Z,979.28
2016-12-10T00:15:43.266Z,979.32
2016-12-10T00:16:43.262Z,979.32
2016-12-10T00:17:43.259Z,979.34
2016-12-10T00:18:43.251Z,979.35
2016-12-10T00:19:43.251Z,979.34
2016-12-10T00:20:43.243Z,979.33
2016-12-10T00:21:43.240Z,979.32
2016-12-10T00:22:43.236Z,979.3
2016-12-10T00:23:43.232Z,979.3
2016-12-10T00:24:43.228Z,979.28
2016-12-10T00:25:43.221Z,979.31
2016-12-10T00:26:43.221Z,979.34
2016-12-10T00:27:43.209Z,979.26
2016-12-10T00:28:43.205Z,979.31
2016-12-10T00:29:43.206Z,979.23
2016-12-10T00:30:43.202Z,979.35
2016-12-10T00:31:43.194Z,979.34
2016-12-10T00:32:43.194Z,979.36
2016-12-10T00:33:43.191Z,979.41
2016-12-10T00:34:43.179Z,979.4
2016-12-10T00:35:43.179Z,979.34
2016-12-10T00:36:43.175Z,979.37
2016-12-10T00:37:43.172Z,979.41
2016-12-10T00:38:43.167Z,979.46
2016-12-10T00:39:43.164Z,979.42
2016-12-10T00:40:43.156Z,979.39
2016-12-10T00:41:43.156Z,979.36
2016-12-10T00:42:43.148Z,979.35
2016-12-10T00:43:43.141Z,979.4
2016-12-10T00:44:43.137Z,979.32
2016-12-10T00:45:43.137Z,979.33
2016-12-10T00:46:43.133Z,979.37
2016-12-10T00:47:43.126Z,979.39
2016-12-10T00:48:43.126Z,979.4
2016-12-10T00:49:43.119Z,979.43
2016-12-10T00:50:43.111Z,979.44
2016-12-10T00:51:43.107Z,979.43
2016-12-10T00:52:43.108Z,979.45
2016-12-10T00:53:43.104Z,979.41
2016-12-10T00:54:43.096Z,979.44
2016-12-10T00:55:43.093Z,979.44
2016-12-10T00:56:43.085Z,979.39
2016-12-10T00:57:43.085Z,979.38
2016-12-10T00:58:43.081Z,979.4
2016-12-10T00:59:43.074Z,979.37
2016-12-10T01:00:43.074Z,979.42
2016-12-10T01:01:43.067Z,979.36
2016-12-10T01:02:43.059Z,979.43
2016-12-10T01:03:43.059Z,979.43
2016-12-10T01:04:43.052Z,979.44
2016-12-10T01:05:43.052Z,979.44
2016-12-10T01:06:43.048Z,979.45
2016-12-10T01:07:43.037Z,979.44
2016-12-10T01:08:43.037Z,979.46
2016-12-10T01:09:43.033Z,979.43
2016-12-10T01:10:43.025Z,979.48
2016-12-10T01:11:43.025Z,979.43
2016-12-10T01:12:43.022Z,979.39
2016-12-10T01:13:43.014Z,979.43
2016-12-10T01:14:43.014Z,979.42
2016-12-10T01:15:43.006Z,979.45
2016-12-10T01:16:42.999Z,979.47
2016-12-10T01:17:42.999Z,979.47
2016-12-10T01:18:42.991Z,979.44
2016-12-10T01:19:42.988Z,979.47
2016-12-10T01:20:42.983Z,979.48
2016-12-10T01:21:42.976Z,979.43
2016-12-10T01:22:42.976Z,979.47
2016-12-10T01:23:42.972Z,979.43
2016-12-10T01:24:42.965Z,979.43
2016-12-10T01:25:42.961Z,979.43
2016-12-10T01:26:42.957Z,979.46
2016-12-10T01:27:42.949Z,979.47
2016-12-10T01:28:42.949Z,979.5
2016-12-10T01:29:42.945Z,979.46
2016-12-10T01:30:42.938Z,979.47
2016-12-10T01:31:42.938Z,979.46
2016-12-10T01:32:42.934Z,979.45
2016-12-10T01:33:42.922Z,979.44
2016-12-10T01:34:42.922Z,979.44
2016-12-10T01:35:42.918Z,979.41
2016-12-10T01:36:42.911Z,979.42
2016-12-10T01:37:42.907Z,979.42
2016-12-10T01:38:42.907Z,979.38
2016-12-10T01:39:42.903Z,979.38
2016-12-10T01:40:42.891Z,979.37
2016-12-10T01:41:42.893Z,979.38
2016-12-10T01:42:42.887Z,979.37
2016-12-10T01:43:42.884Z,979.35
2016-12-10T01:44:42.876Z,979.34
2016-12-10T01:45:42.876Z,979.35
2016-12-10T01:46:42.872Z,979.37
2016-12-10T01:47:42.868Z,979.34
2016-12-10T01:48:42.861Z,979.32
2016-12-10T01:49:42.857Z,979.34
2016-12-10T01:50:42.853Z,979.31
2016-12-10T01:51:42.845Z,979.27
2016-12-10T01:52:42.842Z,979.23
2016-12-10T01:53:42.841Z,979.2
2016-12-10T01:54:42.838Z,979.22
2016-12-10T01:55:42.826Z,979.19
2016-12-10T01:56:42.822Z,979.18
2016-12-10T01:57:42.824Z,979.16
2016-12-10T01:58:42.818Z,979.18
2016-12-10T01:59:42.814Z,979.17
2016-12-10T02:00:43.110Z,979.24
2016-12-10T02:01:42.802Z,979.23
2016-12-10T02:02:42.803Z,979.21
2016-12-10T02:03:42.798Z,979.22
2016-12-10T02:04:42.795Z,979.25
2016-12-10T02:05:42.787Z,979.23
2016-12-10T02:06:42.783Z,979.23
2016-12-10T02:07:42.779Z,979.22
2016-12-10T02:08:42.775Z,979.21
2016-12-10T02:09:42.771Z,979.19
2016-12-10T02:10:42.767Z,979.18
2016-12-10T02:11:42.760Z,979.22
2016-12-10T02:12:42.756Z,979.2
2016-12-10T02:13:42.756Z,979.14
2016-12-10T02:14:42.748Z,979.2
2016-12-10T02:15:42.744Z,979.16
2016-12-10T02:16:42.736Z,979.15
2016-12-10T02:17:42.732Z,979.11
2016-12-10T02:18:42.732Z,979.11
2016-12-10T02:19:42.729Z,979.08
2016-12-10T02:20:42.724Z,979.09
2016-12-10T02:21:42.721Z,979.09
2016-12-10T02:22:42.717Z,979.07
2016-12-10T02:23:42.709Z,979.09
2016-12-10T02:24:42.705Z,979.11
2016-12-10T02:25:42.701Z,979.11
2016-12-10T02:26:42.697Z,979.11
2016-12-10T02:27:42.693Z,979.13
2016-12-10T02:28:42.691Z,979.08
2016-12-10T02:29:42.686Z,979.08
2016-12-10T02:30:42.678Z,979.07
2016-12-10T02:31:42.674Z,979.09
2016-12-10T02:32:42.674Z,979.06
2016-12-10T02:33:42.666Z,979.07
2016-12-10T02:34:42.662Z,979.08
2016-12-10T02:35:42.658Z,979.08
2016-12-10T02:36:42.650Z,979.12
2016-12-10T02:37:42.647Z,979.1
2016-12-10T02:38:42.642Z,979.1
2016-12-10T02:39:42.643Z,979.1
2016-12-10T02:40:42.638Z,979.09
2016-12-10T02:41:42.634Z,979.05
2016-12-10T02:42:42.629Z,979
2016-12-10T02:43:42.618Z,979.03
2016-12-10T02:44:42.615Z,979
2016-12-10T02:45:42.611Z,979.02
2016-12-10T02:46:42.613Z,978.95
2016-12-10T02:47:42.607Z,978.94
2016-12-10T02:48:42.603Z,978.94
2016-12-10T02:49:42.599Z,978.93
2016-12-10T02:50:42.597Z,978.91
2016-12-10T02:51:42.591Z,978.96
2016-12-10T02:52:42.583Z,978.92
2016-12-10T02:53:42.575Z,978.92
2016-12-10T02:54:42.571Z,978.95
2016-12-10T02:55:42.567Z,978.93
2016-12-10T02:56:42.566Z,978.94
2016-12-10T02:57:42.563Z,978.93
2016-12-10T02:58:42.559Z,978.95
2016-12-10T02:59:42.555Z,978.94
2016-12-10T03:00:42.551Z,978.91
2016-12-10T03:01:42.543Z,978.93
2016-12-10T03:02:42.540Z,978.9
2016-12-10T03:03:42.535Z,978.91
2016-12-10T03:04:42.531Z,978.88
2016-12-10T03:05:42.527Z,978.85
2016-12-10T03:06:42.523Z,978.83
2016-12-10T03:07:42.519Z,978.88
2016-12-10T03:08:42.515Z,978.85
2016-12-10T03:09:42.511Z,978.87
2016-12-10T03:10:42.507Z,978.84
2016-12-10T03:11:42.499Z,978.84
2016-12-10T03:12:42.495Z,978.86
2016-12-10T03:13:42.495Z,978.86
2016-12-10T03:14:42.487Z,978.87
2016-12-10T03:15:42.483Z,978.79
2016-12-10T03:16:42.479Z,978.78
2016-12-10T03:17:42.475Z,978.77
2016-12-10T03:18:42.471Z,978.82
2016-12-10T03:19:42.467Z,978.78
2016-12-10T03:20:42.463Z,978.81
2016-12-10T03:21:42.455Z,978.8
2016-12-10T03:22:42.451Z,978.77
2016-12-10T03:23:42.447Z,978.78
2016-12-10T03:24:42.443Z,978.77
2016-12-10T03:25:42.439Z,978.77
2016-12-10T03:26:42.435Z,978.79
2016-12-10T03:27:42.431Z,978.78
2016-12-10T03:28:42.427Z,978.77
2016-12-10T03:29:42.423Z,978.74
2016-12-10T03:30:42.419Z,978.69
2016-12-10T03:31:42.418Z,978.71
2016-12-10T03:32:42.407Z,978.7
2016-12-10T03:33:42.403Z,978.67
2016-12-10T03:34:42.399Z,978.68
2016-12-10T03:35:42.395Z,978.66
2016-12-10T03:36:42.395Z,978.71
2016-12-10T03:37:42.391Z,978.69
2016-12-10T03:38:42.387Z,978.69
2016-12-10T03:39:42.383Z,978.63
2016-12-10T03:40:42.379Z,978.64
2016-12-10T03:41:42.371Z,978.65
2016-12-10T03:42:42.367Z,978.66
2016-12-10T03:43:42.363Z,978.61
2016-12-10T03:44:42.355Z,978.64
2016-12-10T03:45:42.351Z,978.64
2016-12-10T03:46:42.347Z,978.62
2016-12-10T03:47:42.343Z,978.63
2016-12-10T03:48:42.339Z,978.57
2016-12-10T03:49:42.334Z,978.57
2016-12-10T03:50:42.331Z,978.57
2016-12-10T03:51:42.330Z,978.57
2016-12-10T03:52:42.322Z,978.57
2016-12-10T03:53:42.317Z,978.56
2016-12-10T03:54:42.314Z,978.54
2016-12-10T03:55:42.309Z,978.53
2016-12-10T03:56:42.305Z,978.5
2016-12-10T03:57:42.301Z,978.48
2016-12-10T03:58:42.297Z,978.43
2016-12-10T03:59:42.293Z,978.46
2016-12-10T04:00:42.289Z,978.48
2016-12-10T04:01:42.285Z,978.46
2016-12-10T04:02:42.280Z,978.49
2016-12-10T04:03:42.268Z,978.48
2016-12-10T04:04:42.265Z,978.47
2016-12-10T04:05:42.260Z,978.46
2016-12-10T04:06:42.256Z,978.45
2016-12-10T04:07:42.256Z,978.42
2016-12-10T04:08:42.248Z,978.44
2016-12-10T04:09:42.244Z,978.42
2016-12-10T04:10:42.244Z,978.43
2016-12-10T04:11:42.239Z,978.36
2016-12-10T04:12:42.232Z,978.41
2016-12-10T04:13:42.232Z,978.41
2016-12-10T04:14:42.227Z,978.42
2016-12-10T04:15:42.224Z,978.43
2016-12-10T04:16:42.219Z,978.44
2016-12-10T04:17:42.211Z,978.39
2016-12-10T04:18:42.208Z,978.39
2016-12-10T04:19:42.203Z,978.4
2016-12-10T04:20:42.199Z,978.42
2016-12-10T04:21:42.195Z,978.43
2016-12-10T04:22:42.191Z,978.4
2016-12-10T04:23:42.187Z,978.43
2016-12-10T04:24:42.183Z,978.41
2016-12-10T04:25:42.179Z,978.43
2016-12-10T04:26:42.175Z,978.42
2016-12-10T04:27:42.171Z,978.48
2016-12-10T04:28:42.160Z,978.5
2016-12-10T04:29:42.156Z,978.45
2016-12-10T04:30:42.151Z,978.42
2016-12-10T04:31:42.147Z,978.43
2016-12-10T04:32:42.143Z,978.45
2016-12-10T04:33:42.139Z,978.41
2016-12-10T04:34:42.135Z,978.4
2016-12-10T04:35:42.132Z,978.36
2016-12-10T04:36:42.127Z,978.39
2016-12-10T04:37:42.124Z,978.37
2016-12-10T04:38:42.123Z,978.35
2016-12-10T04:39:42.115Z,978.36
2016-12-10T04:40:42.111Z,978.39
2016-12-10T04:41:42.112Z,978.36
2016-12-10T04:42:42.104Z,978.35
2016-12-10T04:43:42.099Z,978.35
2016-12-10T04:44:42.095Z,978.35
2016-12-10T04:45:42.091Z,978.31
2016-12-10T04:46:42.087Z,978.32
2016-12-10T04:47:42.083Z,978.29
2016-12-10T04:48:42.080Z,978.3
2016-12-10T04:49:42.075Z,978.3
2016-12-10T04:50:42.072Z,978.29
2016-12-10T04:51:42.067Z,978.25
2016-12-10T04:52:42.063Z,978.31
2016-12-10T04:53:42.059Z,978.3
2016-12-10T04:54:42.056Z,978.34
2016-12-10T04:55:42.051Z,978.33
2016-12-10T04:56:42.048Z,978.29
2016-12-10T04:57:42.044Z,978.33
2016-12-10T04:58:42.036Z,978.3
2016-12-10T04:59:42.031Z,978.33
2016-12-10T05:00:42.028Z,978.33
2016-12-10T05:01:42.024Z,978.33
2016-12-10T05:02:42.020Z,978.32
2016-12-10T05:03:42.015Z,978.33
2016-12-10T05:04:42.011Z,978.35
2016-12-10T05:05:42.007Z,978.37
2016-12-10T05:06:42.004Z,978.32
2016-12-10T05:07:42.000Z,978.36
2016-12-10T05:08:41.996Z,978.34
2016-12-10T05:09:41.991Z,978.34
2016-12-10T05:10:41.988Z,978.34
2016-12-10T05:11:41.984Z,978.35
2016-12-10T05:12:41.972Z,978.36
2016-12-10T05:13:41.968Z,978.36
2016-12-10T05:14:41.964Z,978.42
2016-12-10T05:15:41.960Z,978.39
2016-12-10T05:16:41.960Z,978.37
2016-12-10T05:17:41.952Z,978.39
2016-12-10T05:18:41.948Z,978.37
2016-12-10T05:19:41.944Z,978.41
2016-12-10T05:20:41.945Z,978.39
2016-12-10T05:21:41.941Z,978.44
2016-12-10T05:22:41.936Z,978.42
2016-12-10T05:23:41.928Z,978.43
2016-12-10T05:24:41.928Z,978.38
2016-12-10T05:25:41.920Z,978.39
2016-12-10T05:26:41.920Z,978.38
2016-12-10T05:27:41.913Z,978.41
2016-12-10T05:28:41.908Z,978.39
2016-12-10T05:29:41.904Z,978.39
2016-12-10T05:30:41.900Z,978.42
2016-12-10T05:31:41.896Z,978.4
2016-12-10T05:32:41.893Z,978.36
2016-12-10T05:33:41.888Z,978.39
2016-12-10T05:34:41.884Z,978.41
2016-12-10T05:35:41.880Z,978.41
2016-12-10T05:36:41.876Z,978.36
2016-12-10T05:37:41.872Z,978.36
2016-12-10T05:38:41.869Z,978.37
2016-12-10T05:39:41.864Z,978.32
2016-12-10T05:40:41.861Z,978.27
2016-12-10T05:41:41.852Z,978.29
2016-12-10T05:42:41.849Z,978.28
2016-12-10T05:43:41.844Z,978.24
2016-12-10T05:44:41.841Z,978.26
2016-12-10T05:45:41.836Z,978.24
2016-12-10T05:46:41.833Z,978.24
2016-12-10T05:47:41.829Z,978.21
2016-12-10T05:48:41.824Z,978.19
2016-12-10T05:49:41.821Z,978.2
2016-12-10T05:50:41.816Z,978.24
2016-12-10T05:51:41.812Z,978.21
2016-12-10T05:52:41.801Z,978.23
2016-12-10T05:53:41.797Z,978.21
2016-12-10T05:54:41.793Z,978.27
2016-12-10T05:55:41.794Z,978.26
2016-12-10T05:56:41.785Z,978.3
2016-12-10T05:57:41.783Z,978.3
2016-12-10T05:58:41.777Z,978.33
2016-12-10T05:59:41.773Z,978.28
2016-12-10T06:00:41.772Z,978.29
2016-12-10T06:01:41.765Z,978.34
2016-12-10T06:02:41.761Z,978.34
2016-12-10T06:03:41.757Z,978.35
2016-12-10T06:04:41.753Z,978.33
2016-12-10T06:05:41.748Z,978.34
2016-12-10T06:06:41.745Z,978.35
2016-12-10T06:07:41.740Z,978.34
2016-12-10T06:08:41.736Z,978.32
2016-12-10T06:09:41.728Z,978.35
2016-12-10T06:10:41.728Z,978.35
2016-12-10T06:11:41.724Z,978.39
2016-12-10T06:12:41.720Z,978.35
2016-12-10T06:13:41.715Z,978.32
2016-12-10T06:14:41.712Z,978.33
2016-12-10T06:15:41.707Z,978.29
2016-12-10T06:16:41.703Z,978.31
2016-12-10T06:17:41.700Z,978.32
2016-12-10T06:18:41.695Z,978.31
2016-12-10T06:19:41.691Z,978.31
2016-12-10T06:20:41.687Z,978.28
2016-12-10T06:21:41.682Z,978.22
2016-12-10T06:22:41.674Z,978.22
2016-12-10T06:23:41.670Z,978.25
2016-12-10T06:24:41.666Z,978.25
2016-12-10T06:25:41.667Z,978.23
2016-12-10T06:26:41.658Z,978.18
2016-12-10T06:27:41.655Z,978.21
2016-12-10T06:28:41.650Z,978.22
2016-12-10T06:29:41.646Z,978.17
2016-12-10T06:30:41.642Z,978.21
2016-12-10T06:31:41.638Z,978.21
2016-12-10T06:32:41.634Z,978.19
2016-12-10T06:33:41.626Z,978.2
2016-12-10T06:34:41.622Z,978.19
2016-12-10T06:35:41.618Z,978.19
2016-12-10T06:36:41.614Z,978.21
2016-12-10T06:37:41.610Z,978.2
2016-12-10T06:38:41.606Z,978.21
2016-12-10T06:39:41.603Z,978.21
2016-12-10T06:40:41.598Z,978.22
2016-12-10T06:41:41.594Z,978.26
2016-12-10T06:42:41.591Z,978.26
2016-12-10T06:43:41.586Z,978.27
2016-12-10T06:44:41.582Z,978.28
2016-12-10T06:45:41.577Z,978.3
2016-12-10T06:46:41.574Z,978.28
2016-12-10T06:47:41.570Z,978.31
2016-12-10T06:48:41.566Z,978.3
2016-12-10T06:49:41.562Z,978.33
2016-12-10T06:50:41.558Z,978.35
2016-12-10T06:51:41.550Z,978.33
2016-12-10T06:52:41.546Z,978.33
2016-12-10T06:53:41.542Z,978.31
2016-12-10T06:54:41.538Z,978.29
2016-12-10T06:55:41.534Z,978.3
2016-12-10T06:56:41.529Z,978.29
2016-12-10T06:57:41.525Z,978.3
2016-12-10T06:58:41.522Z,978.33
2016-12-10T06:59:41.518Z,978.28
2016-12-10T07:00:41.514Z,978.33
2016-12-10T07:01:41.510Z,978.33
2016-12-10T07:02:41.754Z,978.36
2016-12-10T07:03:41.502Z,978.32
2016-12-10T07:04:41.498Z,978.32
2016-12-10T07:05:41.490Z,978.33
2016-12-10T07:06:41.486Z,978.34
2016-12-10T07:07:41.486Z,978.36
2016-12-10T07:08:41.478Z,978.4
2016-12-10T07:09:41.474Z,978.38
2016-12-10T07:10:41.470Z,978.37
2016-12-10T07:11:41.466Z,978.39
2016-12-10T07:12:41.462Z,978.41
2016-12-10T07:13:41.458Z,978.4
2016-12-10T07:14:41.458Z,978.4
2016-12-10T07:15:41.451Z,978.38
2016-12-10T07:16:41.447Z,978.41
2016-12-10T07:17:41.442Z,978.4
2016-12-10T07:18:41.439Z,978.41
2016-12-10T07:19:41.435Z,978.42
2016-12-10T07:20:41.431Z,978.38
2016-12-10T07:21:41.427Z,978.42
2016-12-10T07:22:41.423Z,978.43
2016-12-10T07:23:41.420Z,978.45
2016-12-10T07:24:41.411Z,978.41
2016-12-10T07:25:41.408Z,978.45
2016-12-10T07:26:41.403Z,978.43
2016-12-10T07:27:41.399Z,978.42
2016-12-10T07:28:41.395Z,978.45
2016-12-10T07:29:41.392Z,978.5
2016-12-10T07:30:41.387Z,978.48
2016-12-10T07:31:41.384Z,978.51
2016-12-10T07:32:41.380Z,978.51
2016-12-10T07:33:41.372Z,978.53
2016-12-10T07:34:41.372Z,978.53
2016-12-10T07:35:41.368Z,978.56
2016-12-10T07:36:41.362Z,978.56
2016-12-10T07:37:41.356Z,978.57
2016-12-10T07:38:41.348Z,978.57
2016-12-10T07:39:41.344Z,978.57
2016-12-10T07:40:41.340Z,978.55
2016-12-10T07:41:41.336Z,978.53
2016-12-10T07:42:41.336Z,978.54
2016-12-10T07:43:41.332Z,978.57
2016-12-10T07:44:41.328Z,978.56
2016-12-10T07:45:41.324Z,978.56
2016-12-10T07:46:41.322Z,978.59
2016-12-10T07:47:41.316Z,978.59
2016-12-10T07:48:41.312Z,978.62
2016-12-10T07:49:41.301Z,978.64
2016-12-10T07:50:41.297Z,978.65
2016-12-10T07:51:41.293Z,978.68
2016-12-10T07:52:41.289Z,978.66
2016-12-10T07:53:41.285Z,978.66
2016-12-10T07:54:41.281Z,978.68
2016-12-10T07:55:41.277Z,978.7
2016-12-10T07:56:41.272Z,978.67
2016-12-10T07:57:41.264Z,978.68
2016-12-10T07:58:41.260Z,978.72
2016-12-10T07:59:41.256Z,978.68
2016-12-10T08:00:41.252Z,978.72
2016-12-10T08:01:41.248Z,978.72
2016-12-10T08:02:41.244Z,978.69
2016-12-10T08:03:41.240Z,978.71
2016-12-10T08:04:41.235Z,978.73
2016-12-10T08:05:41.231Z,978.77
2016-12-10T08:06:41.227Z,978.74
2016-12-10T08:07:41.223Z,978.73
2016-12-10T08:08:41.219Z,978.76
2016-12-10T08:09:41.216Z,978.73
2016-12-10T08:10:41.212Z,978.73
2016-12-10T08:11:41.208Z,978.75
2016-12-10T08:12:41.451Z,978.72
2016-12-10T08:13:41.199Z,978.69
2016-12-10T08:14:41.196Z,978.68
2016-12-10T08:15:41.192Z,978.69
2016-12-10T08:16:41.188Z,978.72
2016-12-10T08:17:41.184Z,978.71
2016-12-10T08:18:41.180Z,978.7
2016-12-10T08:19:41.176Z,978.69
2016-12-10T08:20:41.172Z,978.72
2016-12-10T08:21:41.170Z,978.68
2016-12-10T08:22:41.164Z,978.71
2016-12-10T08:23:41.160Z,978.71
2016-12-10T08:24:41.156Z,978.69
2016-12-10T08:25:41.152Z,978.71
2016-12-10T08:26:41.148Z,978.66
2016-12-10T08:27:41.144Z,978.71
2016-12-10T08:28:41.140Z,978.74
2016-12-10T08:29:41.136Z,978.77
2016-12-10T08:30:41.133Z,978.68
2016-12-10T08:31:41.128Z,978.7
2016-12-10T08:32:41.124Z,978.7
2016-12-10T08:33:41.116Z,978.71
2016-12-10T08:34:41.113Z,978.72
2016-12-10T08:35:41.112Z,978.77
2016-12-10T08:36:41.109Z,978.75
2016-12-10T08:37:41.101Z,978.68
2016-12-10T08:38:41.096Z,978.73
2016-12-10T08:39:41.093Z,978.71
2016-12-10T08:40:41.089Z,978.71
2016-12-10T08:41:41.091Z,978.7
2016-12-10T08:42:41.084Z,978.7
2016-12-10T08:43:41.083Z,978.73
2016-12-10T08:44:41.080Z,978.73
2016-12-10T08:45:41.076Z,978.69
2016-12-10T08:46:41.068Z,978.74
2016-12-10T08:47:41.068Z,978.76
2016-12-10T08:48:41.064Z,978.74
2016-12-10T08:49:41.056Z,978.72
2016-12-10T08:50:41.052Z,978.72
2016-12-10T08:51:41.052Z,978.72
2016-12-10T08:52:41.048Z,978.7
2016-12-10T08:53:41.039Z,978.67
2016-12-10T08:54:41.036Z,978.72
2016-12-10T08:55:41.036Z,978.69
2016-12-10T08:56:41.032Z,978.71
2016-12-10T08:57:41.028Z,978.68
2016-12-10T08:58:41.023Z,978.67
2016-12-10T08:59:41.020Z,978.71
2016-12-10T09:00:41.016Z,978.71
2016-12-10T09:01:41.011Z,978.74
2016-12-10T09:02:41.007Z,978.75
2016-12-10T09:03:41.003Z,978.76
2016-12-10T09:04:40.995Z,978.73
2016-12-10T09:05:40.999Z,978.73
2016-12-10T09:06:40.991Z,978.75
2016-12-10T09:07:40.983Z,978.74
2016-12-10T09:08:40.987Z,978.74
2016-12-10T09:09:40.979Z,978.74
2016-12-10T09:10:40.975Z,978.78
2016-12-10T09:11:40.975Z,978.75
2016-12-10T09:12:40.967Z,978.76
2016-12-10T09:13:40.959Z,978.74
2016-12-10T09:14:40.959Z,978.75
2016-12-10T09:15:40.955Z,978.74
2016-12-10T09:16:40.955Z,978.69
2016-12-10T09:17:40.952Z,978.71
2016-12-10T09:18:40.943Z,978.7
2016-12-10T09:19:40.962Z,978.66
2016-12-10T09:20:40.935Z,978.7
2016-12-10T09:21:40.934Z,978.72
2016-12-10T09:22:40.930Z,978.68
2016-12-10T09:23:40.926Z,978.67
2016-12-10T09:24:40.922Z,978.64
2016-12-10T09:25:40.914Z,978.67
2016-12-10T09:26:40.914Z,978.64
2016-12-10T09:27:40.910Z,978.61
2016-12-10T09:28:40.906Z,978.62
2016-12-10T09:29:40.902Z,978.6
2016-12-10T09:30:40.894Z,978.59
2016-12-10T09:31:40.894Z,978.59
2016-12-10T09:32:40.890Z,978.59
2016-12-10T09:33:40.886Z,978.58
2016-12-10T09:34:40.878Z,978.56
2016-12-10T09:35:40.878Z,978.54
2016-12-10T09:36:40.870Z,978.57
2016-12-10T09:37:40.874Z,978.64
2016-12-10T09:38:40.870Z,978.6
2016-12-10T09:39:40.866Z,978.63
2016-12-10T09:40:40.861Z,978.61
2016-12-10T09:41:40.858Z,978.6
2016-12-10T09:42:40.850Z,978.56
2016-12-10T09:43:40.850Z,978.54
2016-12-10T09:44:40.842Z,978.51
2016-12-10T09:45:40.842Z,978.5
2016-12-10T09:46:40.838Z,978.46
2016-12-10T09:47:40.835Z,978.53
2016-12-10T09:48:40.830Z,978.49
2016-12-10T09:49:40.822Z,978.47
2016-12-10T09:50:40.822Z,978.45
2016-12-10T09:51:40.814Z,978.42
2016-12-10T09:52:40.818Z,978.38
2016-12-10T09:53:40.814Z,978.41
2016-12-10T09:54:40.806Z,978.39
2016-12-10T09:55:40.806Z,978.41
2016-12-10T09:56:40.803Z,978.41
2016-12-10T09:57:40.795Z,978.44
2016-12-10T09:58:40.795Z,978.42
2016-12-10T09:59:40.791Z,978.4
2016-12-10T10:00:40.787Z,978.41
2016-12-10T10:01:40.787Z,978.41
2016-12-10T10:02:40.783Z,978.38
2016-12-10T10:03:40.776Z,978.37
2016-12-10T10:04:40.776Z,978.37
2016-12-10T10:05:40.772Z,978.38
2016-12-10T10:06:40.768Z,978.35
2016-12-10T10:07:40.760Z,978.34
2016-12-10T10:08:40.760Z,978.39
2016-12-10T10:09:40.760Z,978.35
2016-12-10T10:10:40.757Z,978.37
2016-12-10T10:11:40.753Z,978.35
2016-12-10T10:12:40.749Z,978.35
2016-12-10T10:13:40.745Z,978.33
2016-12-10T10:14:40.741Z,978.34
2016-12-10T10:15:40.737Z,978.32
2016-12-10T10:16:40.729Z,978.35
2016-12-10T10:17:40.729Z,978.36
2016-12-10T10:18:40.729Z,978.36
2016-12-10T10:19:40.726Z,978.33
2016-12-10T10:20:40.722Z,978.32
2016-12-10T10:21:40.718Z,978.29
2016-12-10T10:22:40.714Z,978.3
2016-12-10T10:23:40.710Z,978.32
2016-12-10T10:24:40.709Z,978.31
2016-12-10T10:25:40.702Z,978.33
2016-12-10T10:26:40.699Z,978.29
2016-12-10T10:27:40.694Z,978.3
2016-12-10T10:28:40.690Z,978.32
2016-12-10T10:29:40.691Z,978.26
2016-12-10T10:30:40.691Z,978.29
2016-12-10T10:31:40.683Z,978.23
2016-12-10T10:32:40.682Z,978.23
2016-12-10T10:33:40.679Z,978.22
2016-12-10T10:34:40.675Z,978.22
2016-12-10T10:35:40.671Z,978.19
2016-12-10T10:36:40.671Z,978.18
2016-12-10T10:37:40.663Z,978.25
2016-12-10T10:38:40.659Z,978.22
2016-12-10T10:39:40.655Z,978.2
2016-12-10T10:40:40.655Z,978.18
2016-12-10T10:41:40.655Z,978.19
2016-12-10T10:42:40.651Z,978.16
2016-12-10T10:43:40.647Z,978.18
2016-12-10T10:44:40.643Z,978.22
2016-12-10T10:45:40.643Z,978.21
2016-12-10T10:46:40.635Z,978.18
2016-12-10T10:47:40.635Z,978.2
2016-12-10T10:48:40.632Z,978.21
2016-12-10T10:49:40.624Z,978.19
2016-12-10T10:50:40.627Z,978.17
2016-12-10T10:51:40.623Z,978.17
2016-12-10T10:52:40.620Z,978.16
2016-12-10T10:53:40.616Z,978.18
2016-12-10T10:54:40.611Z,978.17
2016-12-10T10:55:40.608Z,978.19
2016-12-10T10:56:40.607Z,978.18
2016-12-10T10:57:40.603Z,978.2
2016-12-10T10:58:40.605Z,978.18
2016-12-10T10:59:40.600Z,978.2
2016-12-10T11:00:40.592Z,978.2
2016-12-10T11:01:40.592Z,978.21
2016-12-10T11:02:40.592Z,978.17
2016-12-10T11:03:40.586Z,978.13
2016-12-10T11:04:40.580Z,978.15
2016-12-10T11:05:40.580Z,978.15
2016-12-10T11:06:40.576Z,978.16
2016-12-10T11:07:40.576Z,978.16
2016-12-10T11:08:40.569Z,978.13
2016-12-10T11:09:40.568Z,978.1
2016-12-10T11:10:40.564Z,978.08
2016-12-10T11:11:40.564Z,978.07
2016-12-10T11:12:40.556Z,978
2016-12-10T11:13:40.556Z,977.99
2016-12-10T11:14:40.553Z,977.96
2016-12-10T11:15:40.548Z,977.95
2016-12-10T11:16:40.548Z,977.95
2016-12-10T11:17:40.545Z,977.92
2016-12-10T11:18:40.536Z,977.89
2016-12-10T11:19:40.540Z,977.87
2016-12-10T11:20:40.536Z,977.88
2016-12-10T11:21:40.533Z,977.89
2016-12-10T11:22:40.532Z,977.86
2016-12-10T11:23:40.525Z,977.85
2016-12-10T11:24:40.524Z,977.85
2016-12-10T11:25:40.521Z,977.84
2016-12-10T11:26:40.517Z,977.86
2016-12-10T11:27:40.517Z,977.79
2016-12-10T11:28:40.513Z,977.77
2016-12-10T11:29:40.513Z,977.75
2016-12-10T11:30:40.505Z,977.76
2016-12-10T11:31:40.505Z,977.76
2016-12-10T11:32:40.505Z,977.76
2016-12-10T11:33:40.501Z,977.77
2016-12-10T11:34:40.497Z,977.73
2016-12-10T11:35:40.497Z,977.73
2016-12-10T11:36:40.489Z,977.77
2016-12-10T11:37:40.486Z,977.72
2016-12-10T11:38:40.490Z,977.72
2016-12-10T11:39:40.486Z,977.73
2016-12-10T11:40:40.482Z,977.68
2016-12-10T11:41:40.474Z,977.69
2016-12-10T11:42:40.478Z,977.67
2016-12-10T11:43:40.475Z,977.72
2016-12-10T11:44:40.470Z,977.68
2016-12-10T11:45:40.471Z,977.67
2016-12-10T11:46:40.463Z,977.65
2016-12-10T11:47:40.463Z,977.59
2016-12-10T11:48:40.460Z,977.61
2016-12-10T11:49:40.460Z,977.59
2016-12-10T11:50:40.452Z,977.58
2016-12-10T11:51:40.451Z,977.59
2016-12-10T11:52:40.448Z,977.58
2016-12-10T11:53:40.448Z,977.56
2016-12-10T11:54:40.440Z,977.51
2016-12-10T11:55:40.444Z,977.48
2016-12-10T11:56:40.436Z,977.5
2016-12-10T11:57:40.440Z,977.5
2016-12-10T11:58:40.437Z,977.48
2016-12-10T11:59:40.433Z,977.5
2016-12-10T12:00:40.428Z,977.5
2016-12-10T12:01:40.425Z,977.49
2016-12-10T12:02:40.425Z,977.45
2016-12-10T12:03:40.418Z,977.47
2016-12-10T12:04:40.421Z,977.42
2016-12-10T12:05:40.414Z,977.4
2016-12-10T12:06:40.413Z,977.43
2016-12-10T12:07:40.410Z,977.41
2016-12-10T12:08:40.610Z,977.37
2016-12-10T12:09:40.402Z,977.42
2016-12-10T12:10:40.406Z,977.41
2016-12-10T12:11:40.402Z,977.37
2016-12-10T12:12:40.398Z,977.34
2016-12-10T12:13:40.394Z,977.37
2016-12-10T12:14:40.394Z,977.4
2016-12-10T12:15:40.391Z,977.38
2016-12-10T12:16:40.387Z,977.33
2016-12-10T12:17:40.387Z,977.32
2016-12-10T12:18:40.383Z,977.31
2016-12-10T12:19:40.383Z,977.28
2016-12-10T12:20:40.376Z,977.31
2016-12-10T12:21:40.376Z,977.25
2016-12-10T12:22:40.368Z,977.26
2016-12-10T12:23:40.516Z,977.24
2016-12-10T12:24:40.368Z,977.27
2016-12-10T12:25:40.365Z,977.3
2016-12-10T12:26:40.366Z,977.25
2016-12-10T12:27:40.357Z,977.25
2016-12-10T12:28:40.357Z,977.23
2016-12-10T12:29:40.357Z,977.21
2016-12-10T12:30:40.353Z,977.22